sensor_id;sensor_type;location;lat;lon;timestamp;P1;durP1;ratioP1;P2;durP2;ratioP2
13793;SDS011;31160;49.500;7.772;2024-03-23T00:56:02;6.03;;;4.70;;
13793;SDS011;31160;49.500;7.772;2024-03-23T00:58:30;7.43;;;5.00;;
13793;SDS011;31160;49.500;7.772;2024-03-23T01:00:57;5.97;;;3.90;;
13793;SDS011;31160;49.500;7.772;2024-03-23T01:03:23;6.33;;;4.30;;
13793;SDS011;31160;49.500;7.772;2024-03-23T01:05:50;7.77;;;4.90;;
13793;SDS011;31160;49.500;7.772;2024-03-23T01:08:16;4.93;;;4.40;;
13793;SDS011;31160;49.500;7.772;2024-03-23T01:10:43;5.97;;;4.33;;
13793;SDS011;31160;49.500;7.772;2024-03-23T01:13:20;7.57;;;4.27;;
13793;SDS011;31160;49.500;7.772;2024-03-23T01:15:49;6.67;;;4.23;;
13793;SDS011;31160;49.500;7.772;2024-03-23T01:18:17;6.93;;;4.30;;
13793;SDS011;31160;49.500;7.772;2024-03-23T01:20:44;7.00;;;4.53;;
13793;SDS011;31160;49.500;7.772;2024-03-23T01:23:12;6.27;;;4.53;;
13793;SDS011;31160;49.500;7.772;2024-03-23T01:25:38;7.60;;;4.40;;
13793;SDS011;31160;49.500;7.772;2024-03-23T01:28:04;7.43;;;4.73;;
13793;SDS011;31160;49.500;7.772;2024-03-23T01:30:32;7.27;;;4.57;;
13793;SDS011;31160;49.500;7.772;2024-03-23T01:33:01;7.67;;;4.60;;
13793;SDS011;31160;49.500;7.772;2024-03-23T01:35:30;5.60;;;4.27;;
13793;SDS011;31160;49.500;7.772;2024-03-23T01:37:56;11.43;;;5.17;;
13793;SDS011;31160;49.500;7.772;2024-03-23T01:40:22;5.13;;;4.33;;
13793;SDS011;31160;49.500;7.772;2024-03-23T01:45:35;7.50;;;4.23;;
13793;SDS011;31160;49.500;7.772;2024-03-23T01:48:02;6.53;;;4.70;;
13793;SDS011;31160;49.500;7.772;2024-03-23T01:50:28;7.53;;;4.37;;
13793;SDS011;31160;49.500;7.772;2024-03-23T01:52:58;6.37;;;4.13;;
13793;SDS011;31160;49.500;7.772;2024-03-23T01:55:26;9.33;;;4.20;;
13793;SDS011;31160;49.500;7.772;2024-03-23T01:57:52;8.00;;;5.10;;
13793;SDS011;31160;49.500;7.772;2024-03-23T02:00:21;5.50;;;3.93;;
13793;SDS011;31160;49.500;7.772;2024-03-23T02:02:48;8.27;;;4.60;;
13793;SDS011;31160;49.500;7.772;2024-03-23T02:05:14;6.17;;;4.27;;
13793;SDS011;31160;49.500;7.772;2024-03-23T02:07:40;5.97;;;4.10;;
13793;SDS011;31160;49.500;7.772;2024-03-23T02:10:08;6.67;;;4.07;;
13793;SDS011;31160;49.500;7.772;2024-03-23T02:12:36;6.97;;;4.80;;
13793;SDS011;31160;49.500;7.772;2024-03-23T02:15:02;7.17;;;4.93;;
13793;SDS011;31160;49.500;7.772;2024-03-23T02:17:29;12.13;;;5.10;;
13793;SDS011;31160;49.500;7.772;2024-03-23T02:19:56;7.27;;;4.37;;
13793;SDS011;31160;49.500;7.772;2024-03-23T02:22:22;5.60;;;4.43;;
13793;SDS011;31160;49.500;7.772;2024-03-23T02:24:48;8.07;;;5.17;;
13793;SDS011;31160;49.500;7.772;2024-03-23T02:27:14;7.80;;;4.40;;
13793;SDS011;31160;49.500;7.772;2024-03-23T02:29:40;14.47;;;5.23;;
13793;SDS011;31160;49.500;7.772;2024-03-23T02:32:05;9.10;;;6.80;;
13793;SDS011;31160;49.500;7.772;2024-03-23T02:34:34;10.00;;;6.67;;
13793;SDS011;31160;49.500;7.772;2024-03-23T02:37:00;8.17;;;6.50;;
13793;SDS011;31160;49.500;7.772;2024-03-23T02:39:26;10.07;;;6.63;;
13793;SDS011;31160;49.500;7.772;2024-03-23T02:41:52;9.57;;;6.67;;
13793;SDS011;31160;49.500;7.772;2024-03-23T02:44:18;13.77;;;7.83;;
13793;SDS011;31160;49.500;7.772;2024-03-23T02:46:44;12.70;;;7.70;;
13793;SDS011;31160;49.500;7.772;2024-03-23T02:49:09;17.40;;;10.27;;
13793;SDS011;31160;49.500;7.772;2024-03-23T02:51:35;20.53;;;10.60;;
13793;SDS011;31160;49.500;7.772;2024-03-23T02:54:01;12.97;;;9.97;;
13793;SDS011;31160;49.500;7.772;2024-03-23T02:56:27;15.97;;;10.97;;
13793;SDS011;31160;49.500;7.772;2024-03-23T02:58:53;18.50;;;11.63;;
13793;SDS011;31160;49.500;7.772;2024-03-23T03:01:19;18.73;;;12.83;;
13793;SDS011;31160;49.500;7.772;2024-03-23T03:03:44;22.87;;;12.77;;
13793;SDS011;31160;49.500;7.772;2024-03-23T03:06:10;21.80;;;13.47;;
13793;SDS011;31160;49.500;7.772;2024-03-23T03:08:36;21.53;;;13.03;;
13793;SDS011;31160;49.500;7.772;2024-03-23T03:11:02;22.13;;;14.17;;
13793;SDS011;31160;49.500;7.772;2024-03-23T03:13:28;22.07;;;14.47;;
13793;SDS011;31160;49.500;7.772;2024-03-23T03:15:54;25.53;;;14.47;;
13793;SDS011;31160;49.500;7.772;2024-03-23T03:18:19;19.80;;;13.90;;
13793;SDS011;31160;49.500;7.772;2024-03-23T03:20:45;24.93;;;14.17;;
13793;SDS011;31160;49.500;7.772;2024-03-23T03:23:11;23.17;;;13.80;;
13793;SDS011;31160;49.500;7.772;2024-03-23T03:25:37;21.97;;;13.77;;
13793;SDS011;31160;49.500;7.772;2024-03-23T03:28:03;21.60;;;13.57;;
13793;SDS011;31160;49.500;7.772;2024-03-23T03:30:29;20.20;;;13.70;;
13793;SDS011;31160;49.500;7.772;2024-03-23T03:32:55;22.70;;;14.27;;
13793;SDS011;31160;49.500;7.772;2024-03-23T03:35:21;21.07;;;13.20;;
13793;SDS011;31160;49.500;7.772;2024-03-23T03:37:46;22.73;;;13.53;;
13793;SDS011;31160;49.500;7.772;2024-03-23T03:40:12;20.40;;;13.93;;
13793;SDS011;31160;49.500;7.772;2024-03-23T03:42:40;18.80;;;13.03;;
13793;SDS011;31160;49.500;7.772;2024-03-23T03:45:07;17.17;;;12.77;;
13793;SDS011;31160;49.500;7.772;2024-03-23T03:47:33;17.33;;;12.70;;
13793;SDS011;31160;49.500;7.772;2024-03-23T03:49:59;18.57;;;12.13;;
13793;SDS011;31160;49.500;7.772;2024-03-23T03:52:25;16.90;;;12.17;;
13793;SDS011;31160;49.500;7.772;2024-03-23T03:54:51;14.23;;;10.23;;
13793;SDS011;31160;49.500;7.772;2024-03-23T03:57:17;15.97;;;11.13;;
13793;SDS011;31160;49.500;7.772;2024-03-23T03:59:42;19.37;;;10.53;;
13793;SDS011;31160;49.500;7.772;2024-03-23T04:02:09;16.97;;;10.37;;
13793;SDS011;31160;49.500;7.772;2024-03-23T04:04:34;14.93;;;9.70;;
13793;SDS011;31160;49.500;7.772;2024-03-23T04:07:00;13.27;;;9.20;;
13793;SDS011;31160;49.500;7.772;2024-03-23T04:09:27;12.73;;;8.80;;
13793;SDS011;31160;49.500;7.772;2024-03-23T04:11:53;13.03;;;8.13;;
13793;SDS011;31160;49.500;7.772;2024-03-23T04:14:19;11.53;;;7.60;;
13793;SDS011;31160;49.500;7.772;2024-03-23T04:16:45;11.77;;;7.13;;
13793;SDS011;31160;49.500;7.772;2024-03-23T04:19:11;7.80;;;6.43;;
13793;SDS011;31160;49.500;7.772;2024-03-23T04:21:37;9.57;;;6.17;;
13793;SDS011;31160;49.500;7.772;2024-03-23T04:24:03;9.43;;;6.37;;
13793;SDS011;31160;49.500;7.772;2024-03-23T04:26:30;7.90;;;5.60;;
13793;SDS011;31160;49.500;7.772;2024-03-23T04:29:05;7.93;;;5.80;;
13793;SDS011;31160;49.500;7.772;2024-03-23T04:31:31;8.47;;;5.57;;
13793;SDS011;31160;49.500;7.772;2024-03-23T04:34:00;7.40;;;5.20;;
13793;SDS011;31160;49.500;7.772;2024-03-23T04:36:26;6.60;;;4.97;;
13793;SDS011;31160;49.500;7.772;2024-03-23T04:38:52;6.13;;;4.50;;
13793;SDS011;31160;49.500;7.772;2024-03-23T04:41:18;6.43;;;4.33;;
13793;SDS011;31160;49.500;7.772;2024-03-23T04:43:44;5.77;;;3.83;;
13793;SDS011;31160;49.500;7.772;2024-03-23T04:46:09;2.87;;;2.40;;
13793;SDS011;31160;49.500;7.772;2024-03-23T04:48:35;2.90;;;1.73;;
13793;SDS011;31160;49.500;7.772;2024-03-23T04:51:01;1.50;;;1.30;;
13793;SDS011;31160;49.500;7.772;2024-03-23T04:53:27;1.40;;;1.10;;
13793;SDS011;31160;49.500;7.772;2024-03-23T04:55:54;1.37;;;1.00;;
13793;SDS011;31160;49.500;7.772;2024-03-23T04:58:21;1.10;;;0.80;;
13793;SDS011;31160;49.500;7.772;2024-03-23T05:00:52;1.90;;;0.80;;
13793;SDS011;31160;49.500;7.772;2024-03-23T05:03:22;1.53;;;0.93;;
13793;SDS011;31160;49.500;7.772;2024-03-23T05:05:49;0.80;;;0.80;;
13793;SDS011;31160;49.500;7.772;2024-03-23T05:08:15;1.00;;;0.60;;
13793;SDS011;31160;49.500;7.772;2024-03-23T05:10:42;0.80;;;0.50;;
13793;SDS011;31160;49.500;7.772;2024-03-23T05:13:08;0.50;;;0.43;;
13793;SDS011;31160;49.500;7.772;2024-03-23T05:15:34;0.40;;;0.30;;
13793;SDS011;31160;49.500;7.772;2024-03-23T05:18:00;0.60;;;0.40;;
13793;SDS011;31160;49.500;7.772;2024-03-23T05:20:26;1.50;;;0.50;;
13793;SDS011;31160;49.500;7.772;2024-03-23T05:22:52;0.73;;;0.50;;
13793;SDS011;31160;49.500;7.772;2024-03-23T05:25:20;0.50;;;0.30;;
13793;SDS011;31160;49.500;7.772;2024-03-23T05:27:46;0.80;;;0.40;;
13793;SDS011;31160;49.500;7.772;2024-03-23T05:30:12;0.33;;;0.20;;
13793;SDS011;31160;49.500;7.772;2024-03-23T05:32:38;0.67;;;0.37;;
13793;SDS011;31160;49.500;7.772;2024-03-23T05:35:09;0.97;;;0.43;;
13793;SDS011;31160;49.500;7.772;2024-03-23T05:37:35;0.40;;;0.37;;
13793;SDS011;31160;49.500;7.772;2024-03-23T05:40:02;0.30;;;0.27;;
13793;SDS011;31160;49.500;7.772;2024-03-23T05:42:29;0.40;;;0.30;;
13793;SDS011;31160;49.500;7.772;2024-03-23T05:44:55;0.20;;;0.10;;
13793;SDS011;31160;49.500;7.772;2024-03-23T05:47:21;0.33;;;0.30;;
13793;SDS011;31160;49.500;7.772;2024-03-23T05:49:46;0.33;;;0.17;;
13793;SDS011;31160;49.500;7.772;2024-03-23T05:52:12;0.30;;;0.20;;
13793;SDS011;31160;49.500;7.772;2024-03-23T05:54:39;0.50;;;0.30;;
13793;SDS011;31160;49.500;7.772;2024-03-23T05:57:04;0.70;;;0.30;;
13793;SDS011;31160;49.500;7.772;2024-03-23T05:59:33;0.33;;;0.20;;
13793;SDS011;31160;49.500;7.772;2024-03-23T06:01:58;0.37;;;0.20;;
13793;SDS011;31160;49.500;7.772;2024-03-23T06:04:24;0.30;;;0.20;;
13793;SDS011;31160;49.500;7.772;2024-03-23T06:06:51;0.40;;;0.20;;
13793;SDS011;31160;49.500;7.772;2024-03-23T06:09:20;0.30;;;0.20;;
13793;SDS011;31160;49.500;7.772;2024-03-23T06:11:46;0.27;;;0.10;;
13793;SDS011;31160;49.500;7.772;2024-03-23T06:14:12;0.20;;;0.10;;
13793;SDS011;31160;49.500;7.772;2024-03-23T06:16:37;0.27;;;0.10;;
13793;SDS011;31160;49.500;7.772;2024-03-23T06:19:03;3.03;;;0.20;;
13793;SDS011;31160;49.500;7.772;2024-03-23T06:21:32;0.30;;;0.10;;
13793;SDS011;31160;49.500;7.772;2024-03-23T06:23:58;0.30;;;0.10;;
13793;SDS011;31160;49.500;7.772;2024-03-23T06:26:24;0.30;;;0.20;;
13793;SDS011;31160;49.500;7.772;2024-03-23T06:28:50;0.20;;;0.00;;
13793;SDS011;31160;49.500;7.772;2024-03-23T06:31:16;0.30;;;0.13;;
13793;SDS011;31160;49.500;7.772;2024-03-23T06:33:42;0.50;;;0.10;;
13793;SDS011;31160;49.500;7.772;2024-03-23T06:36:08;0.30;;;0.20;;
13793;SDS011;31160;49.500;7.772;2024-03-23T06:38:35;0.50;;;0.30;;
13793;SDS011;31160;49.500;7.772;2024-03-23T06:41:05;0.70;;;0.20;;
13793;SDS011;31160;49.500;7.772;2024-03-23T06:43:31;3.03;;;0.40;;
13793;SDS011;31160;49.500;7.772;2024-03-23T06:45:57;1.53;;;0.37;;
13793;SDS011;31160;49.500;7.772;2024-03-23T06:48:23;0.97;;;0.30;;
13793;SDS011;31160;49.500;7.772;2024-03-23T06:50:49;1.30;;;0.53;;
13793;SDS011;31160;49.500;7.772;2024-03-23T06:53:15;2.27;;;0.73;;
13793;SDS011;31160;49.500;7.772;2024-03-23T06:55:41;1.73;;;0.43;;
13793;SDS011;31160;49.500;7.772;2024-03-23T06:58:07;2.30;;;0.33;;
13793;SDS011;31160;49.500;7.772;2024-03-23T07:00:33;1.73;;;0.50;;
13793;SDS011;31160;49.500;7.772;2024-03-23T07:02:59;1.53;;;0.53;;
13793;SDS011;31160;49.500;7.772;2024-03-23T07:05:25;5.80;;;1.10;;
13793;SDS011;31160;49.500;7.772;2024-03-23T07:07:51;3.70;;;0.70;;
13793;SDS011;31160;49.500;7.772;2024-03-23T07:10:17;3.63;;;0.70;;
13793;SDS011;31160;49.500;7.772;2024-03-23T07:12:43;2.57;;;1.10;;
13793;SDS011;31160;49.500;7.772;2024-03-23T07:15:09;7.77;;;0.90;;
13793;SDS011;31160;49.500;7.772;2024-03-23T08:02:29;5.40;;;2.00;;
13793;SDS011;31160;49.500;7.772;2024-03-23T08:04:56;4.23;;;2.03;;
13793;SDS011;31160;49.500;7.772;2024-03-23T08:07:21;4.00;;;1.80;;
13793;SDS011;31160;49.500;7.772;2024-03-23T08:09:47;7.53;;;2.30;;
13793;SDS011;31160;49.500;7.772;2024-03-23T08:12:13;6.13;;;2.53;;
13793;SDS011;31160;49.500;7.772;2024-03-23T08:14:39;5.67;;;2.60;;
13793;SDS011;31160;49.500;7.772;2024-03-23T08:17:05;5.53;;;2.10;;
13793;SDS011;31160;49.500;7.772;2024-03-23T08:19:31;5.17;;;2.00;;
13793;SDS011;31160;49.500;7.772;2024-03-23T08:21:57;5.40;;;1.97;;
13793;SDS011;31160;49.500;7.772;2024-03-23T08:24:23;10.03;;;2.27;;
13793;SDS011;31160;49.500;7.772;2024-03-23T08:26:48;10.00;;;2.90;;
13793;SDS011;31160;49.500;7.772;2024-03-23T08:29:14;7.47;;;2.47;;
13793;SDS011;31160;49.500;7.772;2024-03-23T08:31:40;5.57;;;2.10;;
13793;SDS011;31160;49.500;7.772;2024-03-23T08:34:06;10.20;;;2.50;;
13793;SDS011;31160;49.500;7.772;2024-03-23T08:36:32;8.53;;;2.70;;
13793;SDS011;31160;49.500;7.772;2024-03-23T08:38:57;7.33;;;2.17;;
13793;SDS011;31160;49.500;7.772;2024-03-23T08:41:23;10.17;;;2.50;;
13793;SDS011;31160;49.500;7.772;2024-03-23T08:43:49;9.63;;;2.97;;
13793;SDS011;31160;49.500;7.772;2024-03-23T08:46:16;7.90;;;2.73;;
13793;SDS011;31160;49.500;7.772;2024-03-23T08:48:43;6.63;;;2.10;;
13793;SDS011;31160;49.500;7.772;2024-03-23T08:51:13;5.60;;;2.33;;
13793;SDS011;31160;49.500;7.772;2024-03-23T08:53:40;10.87;;;2.43;;
13793;SDS011;31160;49.500;7.772;2024-03-23T08:56:07;7.40;;;2.97;;
13793;SDS011;31160;49.500;7.772;2024-03-23T08:58:35;6.40;;;2.43;;
13793;SDS011;31160;49.500;7.772;2024-03-23T09:01:09;7.77;;;2.43;;
13793;SDS011;31160;49.500;7.772;2024-03-23T09:03:36;6.80;;;2.97;;
13793;SDS011;31160;49.500;7.772;2024-03-23T09:06:02;10.87;;;2.20;;
13793;SDS011;31160;49.500;7.772;2024-03-23T09:08:32;10.37;;;2.67;;
13793;SDS011;31160;49.500;7.772;2024-03-23T09:11:03;7.43;;;2.20;;
13793;SDS011;31160;49.500;7.772;2024-03-23T09:13:31;7.53;;;2.47;;
13793;SDS011;31160;49.500;7.772;2024-03-23T09:16:00;9.43;;;2.37;;
13793;SDS011;31160;49.500;7.772;2024-03-23T09:18:26;7.87;;;2.57;;
13793;SDS011;31160;49.500;7.772;2024-03-23T09:20:53;11.40;;;2.53;;
13793;SDS011;31160;49.500;7.772;2024-03-23T09:23:22;6.57;;;2.60;;
13793;SDS011;31160;49.500;7.772;2024-03-23T09:25:48;8.30;;;1.90;;
13793;SDS011;31160;49.500;7.772;2024-03-23T09:28:14;8.43;;;2.40;;
13793;SDS011;31160;49.500;7.772;2024-03-23T09:30:40;8.97;;;2.37;;
13793;SDS011;31160;49.500;7.772;2024-03-23T09:33:11;7.83;;;2.50;;
13793;SDS011;31160;49.500;7.772;2024-03-23T09:35:38;8.10;;;2.07;;
13793;SDS011;31160;49.500;7.772;2024-03-23T09:38:04;10.00;;;2.63;;
13793;SDS011;31160;49.500;7.772;2024-03-23T09:40:31;7.90;;;2.17;;
13793;SDS011;31160;49.500;7.772;2024-03-23T09:42:57;10.47;;;2.97;;
13793;SDS011;31160;49.500;7.772;2024-03-23T09:45:29;10.50;;;2.20;;
13793;SDS011;31160;49.500;7.772;2024-03-23T09:47:55;6.23;;;1.80;;
13793;SDS011;31160;49.500;7.772;2024-03-23T09:50:21;11.00;;;4.17;;
13793;SDS011;31160;49.500;7.772;2024-03-23T09:52:48;6.97;;;2.10;;
13793;SDS011;31160;49.500;7.772;2024-03-23T09:55:14;7.57;;;2.17;;
13793;SDS011;31160;49.500;7.772;2024-03-23T09:57:40;7.57;;;2.13;;
13793;SDS011;31160;49.500;7.772;2024-03-23T10:00:06;7.37;;;2.30;;
13793;SDS011;31160;49.500;7.772;2024-03-23T10:02:33;6.37;;;2.30;;
13793;SDS011;31160;49.500;7.772;2024-03-23T10:05:00;6.03;;;2.00;;
13793;SDS011;31160;49.500;7.772;2024-03-23T10:07:27;5.37;;;1.97;;
13793;SDS011;31160;49.500;7.772;2024-03-23T10:09:55;7.03;;;2.07;;
13793;SDS011;31160;49.500;7.772;2024-03-23T10:12:22;6.17;;;1.93;;
13793;SDS011;31160;49.500;7.772;2024-03-23T10:14:49;4.53;;;1.70;;
13793;SDS011;31160;49.500;7.772;2024-03-23T10:19:45;9.33;;;1.93;;
13793;SDS011;31160;49.500;7.772;2024-03-23T10:22:22;7.30;;;2.30;;
13793;SDS011;31160;49.500;7.772;2024-03-23T10:24:50;5.87;;;1.80;;
13793;SDS011;31160;49.500;7.772;2024-03-23T10:27:16;10.27;;;1.63;;
13793;SDS011;31160;49.500;7.772;2024-03-23T10:29:44;5.60;;;2.03;;
13793;SDS011;31160;49.500;7.772;2024-03-23T10:32:11;4.57;;;1.70;;
13793;SDS011;31160;49.500;7.772;2024-03-23T10:34:38;9.57;;;2.10;;
13793;SDS011;31160;49.500;7.772;2024-03-23T10:37:05;5.97;;;1.90;;
13793;SDS011;31160;49.500;7.772;2024-03-23T10:39:32;7.57;;;1.73;;
13793;SDS011;31160;49.500;7.772;2024-03-23T10:42:03;6.70;;;1.90;;
13793;SDS011;31160;49.500;7.772;2024-03-23T10:44:33;9.97;;;2.47;;
13793;SDS011;31160;49.500;7.772;2024-03-23T10:47:03;4.40;;;1.80;;
13793;SDS011;31160;49.500;7.772;2024-03-23T10:49:31;6.67;;;2.10;;
13793;SDS011;31160;49.500;7.772;2024-03-23T10:51:58;4.37;;;2.00;;
13793;SDS011;31160;49.500;7.772;2024-03-23T10:54:25;9.70;;;1.70;;
13793;SDS011;31160;49.500;7.772;2024-03-23T10:57:13;3.80;;;1.67;;
13793;SDS011;31160;49.500;7.772;2024-03-23T10:59:43;6.37;;;1.90;;
13793;SDS011;31160;49.500;7.772;2024-03-23T11:02:20;5.00;;;1.60;;
13793;SDS011;31160;49.500;7.772;2024-03-23T11:04:46;5.43;;;1.60;;
13793;SDS011;31160;49.500;7.772;2024-03-23T11:09:51;4.07;;;1.73;;
13793;SDS011;31160;49.500;7.772;2024-03-23T11:14:54;3.87;;;1.70;;
13793;SDS011;31160;49.500;7.772;2024-03-23T11:17:31;3.60;;;1.40;;
13793;SDS011;31160;49.500;7.772;2024-03-23T11:20:00;5.27;;;1.57;;
13793;SDS011;31160;49.500;7.772;2024-03-23T11:22:37;6.57;;;1.60;;
13793;SDS011;31160;49.500;7.772;2024-03-23T11:25:21;4.10;;;1.10;;
13793;SDS011;31160;49.500;7.772;2024-03-23T11:27:50;5.63;;;1.47;;
13793;SDS011;31160;49.500;7.772;2024-03-23T11:30:20;5.33;;;1.90;;
13793;SDS011;31160;49.500;7.772;2024-03-23T11:32:49;5.17;;;1.70;;
13793;SDS011;31160;49.500;7.772;2024-03-23T11:38:06;2.90;;;1.13;;
13793;SDS011;31160;49.500;7.772;2024-03-23T11:40:37;1.93;;;0.83;;
13793;SDS011;31160;49.500;7.772;2024-03-23T11:43:14;4.70;;;1.00;;
13793;SDS011;31160;49.500;7.772;2024-03-23T11:45:45;4.93;;;0.93;;
13793;SDS011;31160;49.500;7.772;2024-03-23T11:50:39;2.87;;;1.00;;
13793;SDS011;31160;49.500;7.772;2024-03-23T11:53:14;1.83;;;0.80;;
13793;SDS011;31160;49.500;7.772;2024-03-23T11:58:13;1.93;;;0.83;;
13793;SDS011;31160;49.500;7.772;2024-03-23T12:00:40;1.17;;;0.77;;
13793;SDS011;31160;49.500;7.772;2024-03-23T12:03:06;1.27;;;0.77;;
13793;SDS011;31160;49.500;7.772;2024-03-23T12:05:33;2.90;;;0.90;;
13793;SDS011;31160;49.500;7.772;2024-03-23T12:08:15;1.90;;;0.77;;
13793;SDS011;31160;49.500;7.772;2024-03-23T12:11:04;3.40;;;1.00;;
13793;SDS011;31160;49.500;7.772;2024-03-23T12:13:31;1.77;;;0.73;;
13793;SDS011;31160;49.500;7.772;2024-03-23T12:18:39;1.50;;;0.70;;
13793;SDS011;31160;49.500;7.772;2024-03-23T12:21:06;6.50;;;0.90;;
13793;SDS011;31160;49.500;7.772;2024-03-23T12:23:33;3.03;;;0.77;;
13793;SDS011;31160;49.500;7.772;2024-03-23T12:25:59;1.23;;;0.50;;
13793;SDS011;31160;49.500;7.772;2024-03-23T12:28:25;2.77;;;0.50;;
13793;SDS011;31160;49.500;7.772;2024-03-23T12:30:51;2.33;;;0.70;;
13793;SDS011;31160;49.500;7.772;2024-03-23T12:33:18;1.93;;;0.67;;
13793;SDS011;31160;49.500;7.772;2024-03-23T12:35:44;4.30;;;1.10;;
13793;SDS011;31160;49.500;7.772;2024-03-23T12:38:10;2.70;;;0.70;;
13793;SDS011;31160;49.500;7.772;2024-03-23T12:40:36;4.37;;;1.20;;
13793;SDS011;31160;49.500;7.772;2024-03-23T12:43:02;2.63;;;1.10;;
13793;SDS011;31160;49.500;7.772;2024-03-23T12:45:27;2.20;;;0.70;;
13793;SDS011;31160;49.500;7.772;2024-03-23T12:47:53;4.20;;;0.93;;
13793;SDS011;31160;49.500;7.772;2024-03-23T12:50:19;2.33;;;0.87;;
13793;SDS011;31160;49.500;7.772;2024-03-23T12:52:46;2.17;;;0.60;;
13793;SDS011;31160;49.500;7.772;2024-03-23T12:55:12;2.27;;;0.80;;
13793;SDS011;31160;49.500;7.772;2024-03-23T12:57:38;5.80;;;0.80;;
13793;SDS011;31160;49.500;7.772;2024-03-23T13:00:06;1.53;;;0.60;;
13793;SDS011;31160;49.500;7.772;2024-03-23T13:02:34;1.57;;;0.67;;
13793;SDS011;31160;49.500;7.772;2024-03-23T13:05:00;2.60;;;0.50;;
13793;SDS011;31160;49.500;7.772;2024-03-23T13:07:26;1.83;;;0.60;;
13793;SDS011;31160;49.500;7.772;2024-03-23T13:09:52;3.87;;;1.03;;
13793;SDS011;31160;49.500;7.772;2024-03-23T13:12:19;2.30;;;0.70;;
13793;SDS011;31160;49.500;7.772;2024-03-23T13:14:45;1.67;;;0.60;;
13793;SDS011;31160;49.500;7.772;2024-03-23T13:17:11;1.60;;;0.57;;
13793;SDS011;31160;49.500;7.772;2024-03-23T13:19:38;2.60;;;0.30;;
13793;SDS011;31160;49.500;7.772;2024-03-23T13:22:04;0.97;;;0.40;;
13793;SDS011;31160;49.500;7.772;2024-03-23T13:24:30;1.40;;;0.60;;
13793;SDS011;31160;49.500;7.772;2024-03-23T13:26:56;2.37;;;0.57;;
13793;SDS011;31160;49.500;7.772;2024-03-23T13:29:23;4.37;;;0.73;;
13793;SDS011;31160;49.500;7.772;2024-03-23T13:31:50;1.60;;;0.50;;
13793;SDS011;31160;49.500;7.772;2024-03-23T13:34:17;2.23;;;0.70;;
13793;SDS011;31160;49.500;7.772;2024-03-23T13:36:45;1.47;;;0.60;;
13793;SDS011;31160;49.500;7.772;2024-03-23T13:39:12;1.17;;;0.60;;
13793;SDS011;31160;49.500;7.772;2024-03-23T13:41:43;1.00;;;0.60;;
13793;SDS011;31160;49.500;7.772;2024-03-23T13:44:10;0.83;;;0.40;;
13793;SDS011;31160;49.500;7.772;2024-03-23T13:46:37;2.70;;;0.80;;
13793;SDS011;31160;49.500;7.772;2024-03-23T13:49:04;3.00;;;0.60;;
13793;SDS011;31160;49.500;7.772;2024-03-23T13:51:30;1.07;;;0.63;;
13793;SDS011;31160;49.500;7.772;2024-03-23T13:53:56;3.50;;;0.67;;
13793;SDS011;31160;49.500;7.772;2024-03-23T13:56:26;1.97;;;0.70;;
13793;SDS011;31160;49.500;7.772;2024-03-23T13:58:54;2.47;;;1.13;;
13793;SDS011;31160;49.500;7.772;2024-03-23T14:01:23;2.13;;;0.77;;
13793;SDS011;31160;49.500;7.772;2024-03-23T14:03:49;1.60;;;0.77;;
13793;SDS011;31160;49.500;7.772;2024-03-23T14:06:15;3.67;;;0.57;;
13793;SDS011;31160;49.500;7.772;2024-03-23T14:08:41;2.00;;;0.50;;
13793;SDS011;31160;49.500;7.772;2024-03-23T14:11:09;0.60;;;0.50;;
13793;SDS011;31160;49.500;7.772;2024-03-23T14:13:35;2.70;;;0.80;;
13793;SDS011;31160;49.500;7.772;2024-03-23T14:16:02;2.27;;;0.70;;
13793;SDS011;31160;49.500;7.772;2024-03-23T14:18:29;0.97;;;0.43;;
13793;SDS011;31160;49.500;7.772;2024-03-23T14:20:59;2.57;;;0.40;;
13793;SDS011;31160;49.500;7.772;2024-03-23T14:23:29;1.77;;;1.13;;
13793;SDS011;31160;49.500;7.772;2024-03-23T14:25:59;1.23;;;0.30;;
13793;SDS011;31160;49.500;7.772;2024-03-23T14:28:25;1.50;;;0.30;;
13793;SDS011;31160;49.500;7.772;2024-03-23T14:30:51;4.03;;;0.83;;
13793;SDS011;31160;49.500;7.772;2024-03-23T14:33:20;1.57;;;0.40;;
13793;SDS011;31160;49.500;7.772;2024-03-23T14:35:56;2.27;;;0.60;;
13793;SDS011;31160;49.500;7.772;2024-03-23T14:38:22;1.37;;;0.40;;
13793;SDS011;31160;49.500;7.772;2024-03-23T14:40:49;4.60;;;0.67;;
13793;SDS011;31160;49.500;7.772;2024-03-23T14:43:16;3.77;;;0.53;;
13793;SDS011;31160;49.500;7.772;2024-03-23T14:48:41;1.33;;;0.53;;
13793;SDS011;31160;49.500;7.772;2024-03-23T14:51:09;4.53;;;0.70;;
13793;SDS011;31160;49.500;7.772;2024-03-23T14:53:37;2.73;;;0.70;;
13793;SDS011;31160;49.500;7.772;2024-03-23T14:56:05;4.80;;;0.90;;
13793;SDS011;31160;49.500;7.772;2024-03-23T14:58:37;3.20;;;0.57;;
13793;SDS011;31160;49.500;7.772;2024-03-23T15:01:06;3.13;;;0.57;;
13793;SDS011;31160;49.500;7.772;2024-03-23T15:03:35;2.27;;;0.60;;
13793;SDS011;31160;49.500;7.772;2024-03-23T15:06:05;2.63;;;0.87;;
13793;SDS011;31160;49.500;7.772;2024-03-23T15:08:31;1.50;;;0.43;;
13793;SDS011;31160;49.500;7.772;2024-03-23T15:11:00;0.63;;;0.30;;
13793;SDS011;31160;49.500;7.772;2024-03-23T15:13:33;1.60;;;0.50;;
13793;SDS011;31160;49.500;7.772;2024-03-23T15:15:59;1.53;;;0.40;;
13793;SDS011;31160;49.500;7.772;2024-03-23T15:18:25;0.87;;;0.30;;
13793;SDS011;31160;49.500;7.772;2024-03-23T15:20:52;1.33;;;0.30;;
13793;SDS011;31160;49.500;7.772;2024-03-23T15:23:23;2.67;;;0.50;;
13793;SDS011;31160;49.500;7.772;2024-03-23T15:25:56;0.90;;;0.40;;
13793;SDS011;31160;49.500;7.772;2024-03-23T15:28:26;2.33;;;0.50;;
13793;SDS011;31160;49.500;7.772;2024-03-23T15:31:03;1.53;;;0.40;;
13793;SDS011;31160;49.500;7.772;2024-03-23T15:33:35;1.00;;;0.47;;
13793;SDS011;31160;49.500;7.772;2024-03-23T15:36:04;1.23;;;0.40;;
13793;SDS011;31160;49.500;7.772;2024-03-23T15:38:31;1.60;;;0.40;;
13793;SDS011;31160;49.500;7.772;2024-03-23T15:40:58;1.63;;;0.47;;
13793;SDS011;31160;49.500;7.772;2024-03-23T15:43:24;1.40;;;0.47;;
13793;SDS011;31160;49.500;7.772;2024-03-23T15:45:56;2.83;;;0.40;;
13793;SDS011;31160;49.500;7.772;2024-03-23T15:48:24;1.90;;;0.50;;
13793;SDS011;31160;49.500;7.772;2024-03-23T15:50:56;3.57;;;0.60;;
13793;SDS011;31160;49.500;7.772;2024-03-23T15:53:25;0.60;;;0.40;;
13793;SDS011;31160;49.500;7.772;2024-03-23T15:58:30;1.67;;;0.50;;
13793;SDS011;31160;49.500;7.772;2024-03-23T16:01:04;2.40;;;0.43;;
13793;SDS011;31160;49.500;7.772;2024-03-23T16:03:32;0.70;;;0.37;;
13793;SDS011;31160;49.500;7.772;2024-03-23T16:06:05;1.40;;;0.90;;
13793;SDS011;31160;49.500;7.772;2024-03-23T16:08:35;1.63;;;0.60;;
13793;SDS011;31160;49.500;7.772;2024-03-23T16:11:01;4.93;;;1.07;;
13793;SDS011;31160;49.500;7.772;2024-03-23T16:13:29;1.27;;;0.53;;
13793;SDS011;31160;49.500;7.772;2024-03-23T16:15:55;3.60;;;0.73;;
13793;SDS011;31160;49.500;7.772;2024-03-23T16:18:25;1.60;;;0.70;;
13793;SDS011;31160;49.500;7.772;2024-03-23T16:21:04;1.80;;;0.90;;
13793;SDS011;31160;49.500;7.772;2024-03-23T16:23:34;1.93;;;1.10;;
13793;SDS011;31160;49.500;7.772;2024-03-23T16:26:02;0.70;;;0.40;;
13793;SDS011;31160;49.500;7.772;2024-03-23T16:28:29;1.40;;;0.90;;
13793;SDS011;31160;49.500;7.772;2024-03-23T16:31:00;1.23;;;0.60;;
13793;SDS011;31160;49.500;7.772;2024-03-23T16:33:28;1.80;;;0.80;;
13793;SDS011;31160;49.500;7.772;2024-03-23T16:35:54;0.80;;;0.60;;
13793;SDS011;31160;49.500;7.772;2024-03-23T16:38:39;1.43;;;0.57;;
13793;SDS011;31160;49.500;7.772;2024-03-23T16:41:08;1.10;;;0.60;;
13793;SDS011;31160;49.500;7.772;2024-03-23T16:43:38;1.33;;;0.80;;
13793;SDS011;31160;49.500;7.772;2024-03-23T16:48:36;1.47;;;0.63;;
13793;SDS011;31160;49.500;7.772;2024-03-23T16:51:03;2.17;;;0.80;;
13793;SDS011;31160;49.500;7.772;2024-03-23T16:53:30;1.93;;;0.90;;
13793;SDS011;31160;49.500;7.772;2024-03-23T16:56:03;3.97;;;0.90;;